createdAt,value
2023-07-19T00:02:23.112Z,62.45
2023-07-19T00:04:50.884Z,62.91
2023-07-19T00:10:59.134Z,61.24
2023-07-19T00:13:26.983Z,62.05
2023-07-19T00:15:56.181Z,61.71
2023-07-19T00:18:24.193Z,61.76
2023-07-19T00:20:52.259Z,61.96
2023-07-19T00:23:19.991Z,62.26
2023-07-19T00:25:47.720Z,62.57
2023-07-19T00:28:15.423Z,63.47
2023-07-19T00:30:43.615Z,63.03
2023-07-19T00:33:12.627Z,63.56
2023-07-19T00:35:42.756Z,64.19
2023-07-19T00:38:10.436Z,64.55
2023-07-19T00:40:38.111Z,65.31
2023-07-19T00:43:10.231Z,65.21
2023-07-19T00:45:42.446Z,65.18
2023-07-19T00:48:10.196Z,65.70
2023-07-19T00:50:39.578Z,65.63
2023-07-19T00:53:07.489Z,65.49
2023-07-19T00:55:35.357Z,65.40
2023-07-19T00:58:03.118Z,65.54
2023-07-19T01:00:31.810Z,65.70
2023-07-19T01:02:59.944Z,65.92
2023-07-19T01:05:28.079Z,65.91
2023-07-19T01:07:59.685Z,66.58
2023-07-19T01:10:27.800Z,66.90
2023-07-19T01:13:05.704Z,66.87
2023-07-19T01:15:33.439Z,67.54
2023-07-19T01:18:01.228Z,67.34
2023-07-19T01:20:29.534Z,67.42
2023-07-19T01:22:59.387Z,67.42
2023-07-19T01:25:27.550Z,66.66
2023-07-19T01:27:55.310Z,66.82
2023-07-19T01:30:23.004Z,67.21
2023-07-19T01:32:50.948Z,67.60
2023-07-19T01:35:18.926Z,67.84
2023-07-19T01:37:47.732Z,67.65
2023-07-19T01:40:16.808Z,66.92
2023-07-19T01:42:44.559Z,66.83
2023-07-19T01:45:12.415Z,67.33
2023-07-19T01:47:40.293Z,67.80
2023-07-19T01:50:08.612Z,66.45
2023-07-19T01:52:36.363Z,66.58
2023-07-19T01:55:04.337Z,67.04
2023-07-19T01:57:33.410Z,67.38
2023-07-19T02:00:01.267Z,67.46
2023-07-19T02:02:29.186Z,66.91
2023-07-19T02:04:57.332Z,67.12
2023-07-19T02:07:25.168Z,66.64
2023-07-19T02:09:53.014Z,66.76
2023-07-19T02:12:20.715Z,67.79
2023-07-19T02:14:49.846Z,68.71
2023-07-19T02:17:17.579Z,68.50
2023-07-19T02:19:45.352Z,68.65
2023-07-19T02:22:13.344Z,69.05
2023-07-19T02:24:41.071Z,68.82
2023-07-19T02:27:08.813Z,68.66
2023-07-19T02:29:36.565Z,68.74
2023-07-19T02:32:06.319Z,69.76
2023-07-19T02:34:34.048Z,69.92
2023-07-19T02:37:01.769Z,70.13
2023-07-19T02:39:31.197Z,70.72
2023-07-19T02:41:59.042Z,70.16
2023-07-19T02:44:26.749Z,69.43
2023-07-19T02:46:54.491Z,69.65
2023-07-19T02:49:25.051Z,69.42
2023-07-19T02:51:52.738Z,69.05
2023-07-19T02:54:20.543Z,69.74
2023-07-19T02:56:48.305Z,69.82
2023-07-19T02:59:16.034Z,70.26
2023-07-19T03:01:43.872Z,69.97
2023-07-19T03:04:13.802Z,69.87
2023-07-19T03:06:42.839Z,69.92
2023-07-19T03:09:12.151Z,70.54
2023-07-19T03:11:39.915Z,70.74
2023-07-19T03:14:07.641Z,71.14
2023-07-19T03:16:35.368Z,70.04
2023-07-19T03:19:03.395Z,69.44
2023-07-19T03:21:31.090Z,69.21
2023-07-19T03:24:00.130Z,69.30
2023-07-19T03:26:28.045Z,69.17
2023-07-19T03:28:55.766Z,68.66
2023-07-19T03:31:23.866Z,68.09
2023-07-19T03:33:51.928Z,67.58
2023-07-19T03:36:19.863Z,67.78
2023-07-19T03:38:47.619Z,68.46
2023-07-19T03:41:16.747Z,68.05
2023-07-19T03:43:45.018Z,68.38
2023-07-19T03:46:12.861Z,69.63
2023-07-19T03:48:40.828Z,69.05
2023-07-19T03:51:08.618Z,68.94
2023-07-19T03:53:36.782Z,67.68
2023-07-19T03:56:04.568Z,66.09
2023-07-19T03:58:33.911Z,64.00
2023-07-19T04:01:04.223Z,62.36
2023-07-19T04:03:32.234Z,61.74
2023-07-19T04:06:00.210Z,61.17
2023-07-19T04:08:28.517Z,59.32
2023-07-19T04:10:56.227Z,58.51
2023-07-19T04:13:23.915Z,57.81
2023-07-19T04:15:53.249Z,58.58
2023-07-19T04:18:20.909Z,59.07
2023-07-19T04:20:55.912Z,58.56
2023-07-19T04:23:23.632Z,58.39
2023-07-19T04:25:51.940Z,58.58
2023-07-19T04:28:20.915Z,58.25
2023-07-19T04:30:50.434Z,58.63
2023-07-19T04:33:21.605Z,57.99
2023-07-19T04:35:50.603Z,58.02
2023-07-19T04:38:18.404Z,58.48
2023-07-19T04:40:46.136Z,57.10
2023-07-19T04:43:14.249Z,56.82
2023-07-19T04:45:43.183Z,57.86
2023-07-19T04:48:11.262Z,58.87
2023-07-19T04:50:40.417Z,57.87
2023-07-19T04:53:08.356Z,56.49
2023-07-19T04:55:36.028Z,55.25
2023-07-19T04:58:04.273Z,53.46
2023-07-19T05:00:32.067Z,51.77
2023-07-19T05:02:59.804Z,50.66
2023-07-19T05:05:27.899Z,49.64
2023-07-19T05:07:56.963Z,49.91
2023-07-19T05:10:24.668Z,47.88
2023-07-19T05:12:52.411Z,47.21
2023-07-19T05:15:20.436Z,43.44
2023-07-19T05:17:48.302Z,41.87
2023-07-19T05:20:17.248Z,42.22
2023-07-19T05:22:45.272Z,39.59
2023-07-19T05:25:14.734Z,38.30
2023-07-19T05:27:42.504Z,34.92
2023-07-19T05:30:11.249Z,31.95
2023-07-19T05:32:39.348Z,31.15
2023-07-19T05:35:08.542Z,29.68
2023-07-19T05:37:36.592Z,29.89
2023-07-19T05:40:06.034Z,29.85
2023-07-19T05:42:35.336Z,28.41
2023-07-19T05:45:03.326Z,28.08
2023-07-19T05:47:31.437Z,26.45
2023-07-19T05:49:59.338Z,25.78
2023-07-19T05:52:28.646Z,25.86
2023-07-19T05:54:56.511Z,23.54
2023-07-19T05:57:24.764Z,25.12
2023-07-19T05:59:56.505Z,24.84
2023-07-19T06:02:39.224Z,23.96
2023-07-19T06:05:15.874Z,22.32
2023-07-19T06:07:43.841Z,22.35
2023-07-19T06:10:11.895Z,21.60
2023-07-19T06:12:39.642Z,20.89
2023-07-19T06:15:13.001Z,19.82
2023-07-19T06:17:42.759Z,20.51
2023-07-19T06:20:12.631Z,20.40
2023-07-19T06:22:40.531Z,21.02
2023-07-19T06:25:09.047Z,21.67
2023-07-19T06:27:37.010Z,21.25
2023-07-19T06:30:05.411Z,20.07
2023-07-19T06:32:34.926Z,19.94
2023-07-19T06:35:02.768Z,21.73
2023-07-19T06:37:30.993Z,21.89
2023-07-19T06:39:58.726Z,22.69
2023-07-19T06:42:26.617Z,19.08
2023-07-19T06:44:54.682Z,19.11
2023-07-19T06:47:22.505Z,17.45
2023-07-19T06:49:51.970Z,19.58
2023-07-19T06:52:19.737Z,19.38
2023-07-19T06:54:47.861Z,20.93
2023-07-19T06:57:15.678Z,19.38
2023-07-19T06:59:43.665Z,19.60
2023-07-19T07:02:11.557Z,19.16
2023-07-19T07:04:39.273Z,18.58
2023-07-19T07:07:08.876Z,18.89
2023-07-19T07:09:37.672Z,18.10
2023-07-19T07:12:06.759Z,17.82
2023-07-19T07:14:34.631Z,19.15
2023-07-19T07:17:02.669Z,19.35
2023-07-19T07:19:30.745Z,17.62
2023-07-19T07:21:59.280Z,19.01
2023-07-19T07:24:28.323Z,16.93
2023-07-19T07:26:56.314Z,16.02
2023-07-19T07:29:24.154Z,15.47
2023-07-19T07:31:53.112Z,15.96
2023-07-19T07:34:23.165Z,16.36
2023-07-19T07:36:52.366Z,17.11
2023-07-19T07:39:20.231Z,19.06
2023-07-19T07:41:49.278Z,19.22
2023-07-19T07:44:17.467Z,19.40
2023-07-19T07:46:45.306Z,20.25
2023-07-19T07:49:13.535Z,18.25
2023-07-19T07:51:41.341Z,16.47
2023-07-19T07:54:09.471Z,14.77
2023-07-19T07:56:37.252Z,15.89
2023-07-19T07:59:06.564Z,15.61
2023-07-19T08:01:34.346Z,14.91
2023-07-19T08:04:03.609Z,14.86
2023-07-19T08:06:31.357Z,14.70
2023-07-19T08:08:59.265Z,14.87
2023-07-19T08:11:27.894Z,15.40
2023-07-19T08:13:56.332Z,15.21
2023-07-19T08:16:25.892Z,15.42
2023-07-19T08:18:54.083Z,17.05
2023-07-19T08:21:35.309Z,16.01
2023-07-19T08:24:05.176Z,14.80
2023-07-19T08:26:33.238Z,14.73
2023-07-19T08:29:00.989Z,14.61
2023-07-19T08:31:30.325Z,15.15
2023-07-19T08:33:58.216Z,15.87
2023-07-19T08:36:26.191Z,14.49
2023-07-19T08:38:54.505Z,15.03
2023-07-19T08:41:24.312Z,16.63
2023-07-19T08:43:56.829Z,18.55
2023-07-19T08:46:24.681Z,17.88
2023-07-19T08:48:54.232Z,17.99
2023-07-19T08:51:22.774Z,18.49
2023-07-19T08:53:51.463Z,18.65
2023-07-19T08:56:19.700Z,19.69
2023-07-19T08:58:47.834Z,18.66
2023-07-19T09:01:15.814Z,19.13
2023-07-19T09:03:43.937Z,19.91
2023-07-19T09:06:13.210Z,18.86
2023-07-19T09:08:42.965Z,19.02
2023-07-19T09:11:10.935Z,18.42
2023-07-19T09:13:40.300Z,17.66
2023-07-19T09:16:08.795Z,16.77
2023-07-19T09:18:38.735Z,16.65
2023-07-19T09:21:07.258Z,16.21
2023-07-19T09:23:40.092Z,17.07
2023-07-19T09:26:08.630Z,14.81
2023-07-19T09:28:37.017Z,14.62
2023-07-19T09:33:37.076Z,18.12
2023-07-19T09:36:05.252Z,17.23
2023-07-19T09:38:33.063Z,16.03
2023-07-19T09:41:02.882Z,17.95
2023-07-19T09:43:34.068Z,18.49
2023-07-19T09:46:03.371Z,17.57
2023-07-19T09:48:31.605Z,16.12
2023-07-19T09:51:03.970Z,17.65
2023-07-19T09:53:34.676Z,16.59
2023-07-19T09:56:05.415Z,15.95
2023-07-19T09:58:35.826Z,15.86
2023-07-19T10:01:03.958Z,16.24
2023-07-19T10:03:31.915Z,16.12
2023-07-19T10:06:00.714Z,14.98
2023-07-19T10:08:31.807Z,15.09
2023-07-19T10:11:02.962Z,16.38
2023-07-19T10:13:32.383Z,17.34
2023-07-19T10:16:00.465Z,17.20
2023-07-19T10:18:31.008Z,19.69
2023-07-19T10:21:03.597Z,20.42
2023-07-19T10:23:32.622Z,21.82
2023-07-19T10:26:07.083Z,20.63
2023-07-19T10:28:36.800Z,20.44
2023-07-19T10:31:25.908Z,19.34
2023-07-19T10:33:56.560Z,19.40
2023-07-19T10:36:25.940Z,19.02
2023-07-19T10:38:54.235Z,19.80
2023-07-19T10:41:22.405Z,20.68
2023-07-19T10:43:54.703Z,19.07
2023-07-19T10:46:24.013Z,18.77
2023-07-19T10:48:53.183Z,18.60
2023-07-19T10:51:22.097Z,18.02
2023-07-19T10:53:58.537Z,19.22
2023-07-19T10:56:28.065Z,20.30
2023-07-19T10:59:02.077Z,21.69
2023-07-19T11:01:32.236Z,20.88
2023-07-19T11:04:04.153Z,20.85
2023-07-19T11:06:32.412Z,20.50
2023-07-19T11:09:05.628Z,20.93
2023-07-19T11:11:37.819Z,22.35
2023-07-19T11:14:07.595Z,25.01
2023-07-19T11:16:36.017Z,25.58
2023-07-19T11:19:04.139Z,25.75
2023-07-19T11:21:32.494Z,26.39
2023-07-19T11:24:00.577Z,27.18
2023-07-19T11:26:28.461Z,27.66
2023-07-19T11:28:58.689Z,27.37
2023-07-19T11:31:32.739Z,26.56
2023-07-19T11:34:07.954Z,25.13
2023-07-19T11:36:36.253Z,24.21
2023-07-19T11:39:04.529Z,24.90
2023-07-19T11:41:33.728Z,26.36
2023-07-19T11:44:01.908Z,25.94
2023-07-19T11:46:31.129Z,24.95
2023-07-19T11:48:59.457Z,23.73
2023-07-19T11:51:29.076Z,23.14
2023-07-19T11:53:56.913Z,23.16
2023-07-19T11:56:27.407Z,22.31
2023-07-19T11:58:57.421Z,21.43
2023-07-19T12:01:25.852Z,21.80
2023-07-19T12:03:55.206Z,23.14
2023-07-19T12:06:23.378Z,24.71
2023-07-19T12:08:52.132Z,24.67
2023-07-19T12:11:20.174Z,23.94
2023-07-19T12:13:49.011Z,23.16
2023-07-19T12:16:18.388Z,23.18
2023-07-19T12:18:46.363Z,23.87
2023-07-19T12:21:15.712Z,23.49
2023-07-19T12:23:44.047Z,22.65
2023-07-19T12:28:58.629Z,23.60
2023-07-19T12:31:27.120Z,23.56
2023-07-19T12:33:55.288Z,23.63
2023-07-19T12:36:25.106Z,23.69
2023-07-19T12:38:53.120Z,23.27
2023-07-19T12:41:21.011Z,23.14
2023-07-19T12:43:49.100Z,23.13
2023-07-19T12:46:17.358Z,22.86
2023-07-19T12:48:45.268Z,23.17
2023-07-19T12:51:13.568Z,23.07
2023-07-19T12:53:42.827Z,23.09
2023-07-19T12:56:10.693Z,22.93
2023-07-19T12:58:39.048Z,23.59
2023-07-19T13:01:07.098Z,24.85
2023-07-19T13:03:35.450Z,24.59
2023-07-19T13:06:03.401Z,24.66
2023-07-19T13:08:31.394Z,24.10
2023-07-19T13:11:00.827Z,23.72
2023-07-19T13:13:29.237Z,24.80
2023-07-19T13:15:57.104Z,23.86
2023-07-19T13:18:25.040Z,23.66
2023-07-19T13:20:54.623Z,23.90
2023-07-19T13:23:22.796Z,23.21
2023-07-19T13:25:50.654Z,23.70
2023-07-19T13:28:20.236Z,23.85
2023-07-19T13:30:50.089Z,23.16
2023-07-19T13:33:18.377Z,23.13
2023-07-19T13:38:18.414Z,23.33
2023-07-19T13:40:52.205Z,23.33
2023-07-19T13:43:21.499Z,22.43
2023-07-19T13:45:49.822Z,22.63
2023-07-19T13:48:18.372Z,22.81
2023-07-19T13:50:46.412Z,22.31
2023-07-19T13:53:14.306Z,22.44
2023-07-19T13:55:42.563Z,21.79
2023-07-19T13:58:10.453Z,22.51
2023-07-19T14:00:39.670Z,22.88
2023-07-19T14:03:07.985Z,24.17
2023-07-19T14:05:35.902Z,23.75
2023-07-19T14:08:04.687Z,24.02
2023-07-19T14:10:33.379Z,24.10
2023-07-19T14:13:01.414Z,25.13
2023-07-19T14:15:29.859Z,24.92
2023-07-19T14:17:59.626Z,24.51
2023-07-19T14:20:27.851Z,24.08
2023-07-19T14:22:55.677Z,25.04
2023-07-19T14:25:24.218Z,24.94
2023-07-19T14:27:52.149Z,24.65
2023-07-19T14:30:20.208Z,24.73
2023-07-19T14:32:48.448Z,24.88
2023-07-19T14:35:17.652Z,25.17
2023-07-19T14:37:45.795Z,24.13
2023-07-19T14:40:15.733Z,24.39
2023-07-19T14:42:44.632Z,24.12
2023-07-19T14:45:12.500Z,24.14
2023-07-19T14:47:41.557Z,24.47
2023-07-19T14:50:10.797Z,25.09
2023-07-19T14:52:43.190Z,25.08
2023-07-19T14:55:11.881Z,25.22
2023-07-19T14:57:39.712Z,25.13
2023-07-19T15:00:13.288Z,25.45
2023-07-19T15:02:41.852Z,25.50
2023-07-19T15:05:10.969Z,26.06
2023-07-19T15:07:44.899Z,26.23
2023-07-19T15:10:14.693Z,26.22
2023-07-19T15:12:44.239Z,26.89
2023-07-19T15:15:13.506Z,27.00
2023-07-19T15:17:42.488Z,27.69
2023-07-19T15:20:11.232Z,27.83
2023-07-19T15:22:42.342Z,28.42
2023-07-19T15:25:10.610Z,28.43
2023-07-19T15:27:39.120Z,29.05
2023-07-19T15:30:08.463Z,29.63
2023-07-19T15:32:36.420Z,30.13
2023-07-19T15:35:04.479Z,30.41
2023-07-19T15:37:32.386Z,30.06
2023-07-19T15:40:01.450Z,29.83
2023-07-19T15:42:29.990Z,30.19
2023-07-19T15:44:57.699Z,30.44
2023-07-19T15:47:25.570Z,30.86
2023-07-19T15:49:53.576Z,31.34
2023-07-19T15:52:21.359Z,31.27
2023-07-19T15:54:49.104Z,31.54
2023-07-19T15:57:18.533Z,31.82
2023-07-19T15:59:46.195Z,32.12
2023-07-19T16:02:14.808Z,32.34
2023-07-19T16:04:43.144Z,32.26
2023-07-19T16:07:14.344Z,33.43
2023-07-19T16:09:42.402Z,33.04
2023-07-19T16:12:11.578Z,33.34
2023-07-19T16:14:41.422Z,33.05
2023-07-19T16:17:09.264Z,33.28
2023-07-19T16:19:37.555Z,34.02
2023-07-19T16:22:05.461Z,33.63
2023-07-19T16:24:33.252Z,33.62
2023-07-19T16:27:01.442Z,32.96
2023-07-19T16:29:29.119Z,33.32
2023-07-19T16:31:58.184Z,34.15
2023-07-19T16:34:26.406Z,34.23
2023-07-19T16:36:54.131Z,34.34
2023-07-19T16:39:21.833Z,34.37
2023-07-19T16:41:50.200Z,34.00
2023-07-19T16:44:18.175Z,34.31
2023-07-19T16:46:46.137Z,34.29
2023-07-19T16:49:15.696Z,34.51
2023-07-19T16:51:43.526Z,34.31
2023-07-19T16:54:11.227Z,34.89
2023-07-19T16:56:39.420Z,35.17
2023-07-19T16:59:07.311Z,34.98
2023-07-19T17:01:35.246Z,35.19
2023-07-19T17:04:03.594Z,35.35
2023-07-19T17:06:32.690Z,35.45
2023-07-19T17:09:00.389Z,35.72
2023-07-19T17:11:28.616Z,36.01
2023-07-19T17:13:56.590Z,36.12
2023-07-19T17:16:24.373Z,36.52
2023-07-19T17:19:09.425Z,39.67
2023-07-19T17:21:45.853Z,43.31
2023-07-19T17:24:14.176Z,45.63
2023-07-19T17:26:41.928Z,47.40
2023-07-19T17:29:09.644Z,48.86
2023-07-19T17:31:38.056Z,50.13
2023-07-19T17:34:05.895Z,50.81
2023-07-19T17:36:33.970Z,52.62
2023-07-19T17:39:02.498Z,53.35
2023-07-19T17:41:30.568Z,53.16
2023-07-19T17:43:58.639Z,55.00
2023-07-19T17:46:26.418Z,55.38
2023-07-19T17:48:54.184Z,57.46
2023-07-19T17:51:22.729Z,57.48
2023-07-19T17:53:50.754Z,58.56
2023-07-19T17:56:19.766Z,58.39
2023-07-19T17:58:48.107Z,58.98
2023-07-19T18:01:17.104Z,59.45
2023-07-19T18:03:45.867Z,60.08
2023-07-19T18:06:13.626Z,59.49
2023-07-19T18:08:41.305Z,59.62
2023-07-19T18:11:09.435Z,60.28
2023-07-19T18:13:38.630Z,60.51
2023-07-19T18:16:06.930Z,60.45
2023-07-19T18:18:34.634Z,61.75
2023-07-19T18:21:02.432Z,62.32
2023-07-19T18:23:30.615Z,62.64
2023-07-19T18:25:58.713Z,61.24
2023-07-19T18:28:26.422Z,60.89
2023-07-19T18:30:55.542Z,61.96
2023-07-19T18:33:23.714Z,60.38
2023-07-19T18:35:51.935Z,60.12
2023-07-19T18:38:19.561Z,61.66
2023-07-19T18:40:47.642Z,61.78
2023-07-19T18:43:15.409Z,62.82
2023-07-19T18:45:43.159Z,64.45
2023-07-19T18:48:12.628Z,65.46
2023-07-19T18:50:40.721Z,66.16
2023-07-19T18:53:08.466Z,66.12
2023-07-19T18:55:36.595Z,66.93
2023-07-19T18:58:04.323Z,67.61
2023-07-19T19:00:32.095Z,67.80
2023-07-19T19:03:00.497Z,66.99
2023-07-19T19:05:29.840Z,65.60
2023-07-19T19:07:57.748Z,63.36
2023-07-19T19:10:26.218Z,64.24
2023-07-19T19:12:53.944Z,65.84
2023-07-19T19:15:21.743Z,66.27
2023-07-19T19:17:49.889Z,67.12
2023-07-19T19:20:18.177Z,68.00
2023-07-19T19:22:47.811Z,68.78
2023-07-19T19:25:16.220Z,69.99
2023-07-19T19:27:44.014Z,69.84
2023-07-19T19:30:12.354Z,70.72
2023-07-19T19:32:40.897Z,70.10
2023-07-19T19:35:09.227Z,70.53
2023-07-19T19:37:37.262Z,69.27
2023-07-19T19:40:10.781Z,67.11
2023-07-19T19:42:39.584Z,66.12
2023-07-19T19:45:08.960Z,65.39
2023-07-19T19:47:37.268Z,65.66
2023-07-19T19:50:05.829Z,66.21
2023-07-19T19:52:34.227Z,66.04
2023-07-19T19:55:01.943Z,66.76
2023-07-19T19:57:32.899Z,66.81
2023-07-19T20:00:03.027Z,66.38
2023-07-19T20:02:38.086Z,66.05
2023-07-19T20:05:06.928Z,65.96
2023-07-19T20:07:34.692Z,65.79
2023-07-19T20:10:17.546Z,65.66
2023-07-19T20:12:48.169Z,65.73
2023-07-19T20:15:16.375Z,65.57
2023-07-19T20:17:44.308Z,65.94
2023-07-19T20:20:22.570Z,64.51
2023-07-19T20:22:52.311Z,64.51
2023-07-19T20:25:56.344Z,63.58
2023-07-19T20:28:09.570Z,63.73
2023-07-19T20:33:09.045Z,63.81
2023-07-19T20:43:11.826Z,64.09
2023-07-19T20:45:39.732Z,64.80
2023-07-19T20:48:07.648Z,64.72
2023-07-19T20:50:37.220Z,65.38
2023-07-19T20:53:04.906Z,67.05
2023-07-19T20:55:33.551Z,69.33
2023-07-19T20:58:01.786Z,71.03
2023-07-19T21:00:30.937Z,72.20
2023-07-19T21:02:59.293Z,72.50
2023-07-19T21:05:27.028Z,73.33
2023-07-19T21:07:54.706Z,74.66
2023-07-19T21:10:27.422Z,75.63
2023-07-19T21:12:55.313Z,74.82
2023-07-19T21:15:23.139Z,74.87
2023-07-19T21:17:54.841Z,74.80
2023-07-19T21:20:23.759Z,73.45
2023-07-19T21:22:52.229Z,73.66
2023-07-19T21:25:20.438Z,73.79
2023-07-19T21:27:48.216Z,73.05
2023-07-19T21:30:16.434Z,70.86
2023-07-19T21:32:45.075Z,71.00
2023-07-19T21:35:14.180Z,70.77
2023-07-19T21:37:42.398Z,70.20
2023-07-19T21:40:10.767Z,71.71
2023-07-19T21:42:38.741Z,71.79
2023-07-19T21:45:07.247Z,71.46
2023-07-19T21:47:34.992Z,71.14
2023-07-19T21:50:02.741Z,70.74
2023-07-19T21:52:32.223Z,69.99
2023-07-19T21:54:59.865Z,70.60
2023-07-19T21:57:27.826Z,70.27
2023-07-19T21:59:56.018Z,70.86
2023-07-19T22:02:23.778Z,69.98
2023-07-19T22:04:51.420Z,69.55
2023-07-19T22:07:19.569Z,69.27
2023-07-19T22:09:48.617Z,68.18
2023-07-19T22:12:16.534Z,69.77
2023-07-19T22:14:50.842Z,70.94
2023-07-19T22:17:25.283Z,71.44
2023-07-19T22:19:53.408Z,70.74
2023-07-19T22:22:21.545Z,69.04
2023-07-19T22:24:50.621Z,67.84
2023-07-19T22:27:18.750Z,67.42
2023-07-19T22:29:46.390Z,66.40
2023-07-19T22:32:14.441Z,66.51
2023-07-19T22:34:42.095Z,70.49
2023-07-19T22:37:10.672Z,69.32
2023-07-19T22:39:38.303Z,69.56
2023-07-19T22:42:07.686Z,70.03
2023-07-19T22:44:35.914Z,69.83
2023-07-19T22:47:04.849Z,69.98
2023-07-19T22:49:32.688Z,67.41
2023-07-19T22:52:00.779Z,67.87
2023-07-19T22:54:28.525Z,67.40
2023-07-19T22:56:56.628Z,67.59
2023-07-19T22:59:25.714Z,68.05
2023-07-19T23:01:53.454Z,67.87
2023-07-19T23:04:21.579Z,68.08
2023-07-19T23:06:49.294Z,68.12
2023-07-19T23:09:17.018Z,67.83
2023-07-19T23:11:45.108Z,68.54
2023-07-19T23:14:12.757Z,68.74
2023-07-19T23:16:44.681Z,67.70
2023-07-19T23:19:12.701Z,70.00
2023-07-19T23:21:40.481Z,69.59
2023-07-19T23:24:08.774Z,70.67
2023-07-19T23:26:36.484Z,71.24
2023-07-19T23:29:06.393Z,71.40
2023-07-19T23:31:35.619Z,71.47
2023-07-19T23:34:04.660Z,71.48
2023-07-19T23:36:32.463Z,72.82
2023-07-19T23:39:00.939Z,72.55
2023-07-19T23:41:28.846Z,73.63
2023-07-19T23:43:56.573Z,73.82
2023-07-19T23:46:25.163Z,73.33
2023-07-19T23:48:53.172Z,74.04
2023-07-19T23:51:22.316Z,75.75
2023-07-19T23:53:50.420Z,73.36
2023-07-19T23:56:18.087Z,72.79
2023-07-19T23:58:45.809Z,74.21
